createdAt,value
2023-02-25T00:00:11.475Z,7.22
2023-02-25T00:02:38.326Z,7.16
2023-02-25T00:05:07.392Z,7.11
2023-02-25T00:07:34.140Z,7.08
2023-02-25T00:10:01.703Z,7.08
2023-02-25T00:12:29.518Z,7.08
2023-02-25T00:14:56.532Z,7.10
2023-02-25T00:17:23.664Z,7.13
2023-02-25T00:19:50.399Z,7.16
2023-02-25T00:22:17.365Z,7.17
2023-02-25T00:24:44.283Z,7.17
2023-02-25T00:27:11.052Z,7.18
2023-02-25T00:29:40.119Z,7.17
2023-02-25T00:32:07.186Z,7.16
2023-02-25T00:34:34.015Z,7.17
2023-02-25T00:37:00.899Z,7.13
2023-02-25T00:39:42.354Z,7.09
2023-02-25T00:42:10.348Z,7.09
2023-02-25T00:44:39.358Z,7.12
2023-02-25T00:47:06.920Z,7.15
2023-02-25T00:49:33.708Z,7.16
2023-02-25T00:52:00.474Z,7.21
2023-02-25T00:54:29.477Z,7.21
2023-02-25T00:56:56.247Z,7.22
2023-02-25T00:59:23.117Z,7.25
2023-02-25T01:01:49.931Z,7.26
2023-02-25T01:04:16.716Z,7.23
2023-02-25T01:06:43.943Z,7.21
2023-02-25T01:09:14.253Z,7.20
2023-02-25T01:11:43.563Z,7.17
2023-02-25T01:14:13.008Z,7.14
2023-02-25T01:16:40.309Z,7.12
2023-02-25T01:19:08.500Z,7.11
2023-02-25T01:21:37.217Z,7.09
2023-02-25T01:24:08.327Z,7.04
2023-02-25T01:26:36.476Z,7.02
2023-02-25T01:29:06.354Z,7.02
2023-02-25T01:31:33.485Z,6.98
2023-02-25T01:34:01.637Z,6.99
2023-02-25T01:36:29.443Z,6.96
2023-02-25T01:38:56.712Z,6.92
2023-02-25T01:41:24.051Z,6.92
2023-02-25T01:43:53.936Z,6.93
2023-02-25T01:46:23.625Z,6.86
2023-02-25T01:48:50.644Z,6.86
2023-02-25T01:51:17.635Z,6.86
2023-02-25T01:53:46.972Z,6.84
2023-02-25T01:56:15.727Z,6.81
2023-02-25T01:58:43.201Z,6.76
2023-02-25T02:01:12.897Z,6.75
2023-02-25T02:03:42.522Z,6.75
2023-02-25T02:06:10.717Z,6.72
2023-02-25T02:08:37.557Z,6.75
2023-02-25T02:11:04.811Z,6.77
2023-02-25T02:13:33.813Z,6.77
2023-02-25T02:16:03.757Z,6.79
2023-02-25T02:18:34.129Z,6.77
2023-02-25T02:21:04.007Z,6.79
2023-02-25T02:23:31.118Z,6.79
2023-02-25T02:25:58.412Z,6.80
2023-02-25T02:28:28.291Z,6.78
2023-02-25T02:30:58.247Z,6.78
2023-02-25T02:33:29.700Z,6.76
2023-02-25T02:35:59.599Z,6.75
2023-02-25T02:38:27.897Z,6.74
2023-02-25T02:40:57.947Z,6.78
2023-02-25T02:43:27.927Z,6.75
2023-02-25T02:45:55.290Z,6.72
2023-02-25T02:48:28.979Z,6.68
2023-02-25T02:50:57.868Z,6.68
2023-02-25T02:53:28.715Z,6.62
2023-02-25T02:56:06.155Z,6.57
2023-02-25T02:58:36.000Z,6.55
2023-02-25T03:01:05.940Z,6.53
2023-02-25T03:03:37.630Z,6.51
2023-02-25T03:06:08.119Z,6.48
2023-02-25T03:08:40.170Z,6.47
2023-02-25T03:11:07.066Z,6.44
2023-02-25T03:13:33.904Z,6.42
2023-02-25T03:16:01.212Z,6.42
2023-02-25T03:18:31.082Z,6.38
2023-02-25T03:20:59.091Z,6.36
2023-02-25T03:23:31.445Z,6.34
2023-02-25T03:26:06.688Z,6.36
2023-02-25T03:28:34.525Z,6.39
2023-02-25T03:31:07.441Z,6.42
2023-02-25T03:33:35.749Z,6.43
2023-02-25T03:36:05.462Z,6.45
2023-02-25T03:38:34.903Z,6.47
2023-02-25T03:41:03.561Z,6.49
2023-02-25T03:43:33.095Z,6.45
2023-02-25T03:46:00.241Z,6.49
2023-02-25T03:48:27.455Z,6.48
2023-02-25T03:50:59.440Z,6.47
2023-02-25T03:53:27.078Z,6.45
2023-02-25T03:55:54.631Z,6.43
2023-02-25T03:58:21.783Z,6.45
2023-02-25T04:00:49.960Z,6.46
2023-02-25T04:03:16.911Z,6.49
2023-02-25T04:05:43.728Z,6.48
2023-02-25T04:08:16.279Z,6.48
2023-02-25T04:10:44.258Z,6.50
2023-02-25T04:13:11.690Z,6.53
2023-02-25T04:15:38.663Z,6.53
2023-02-25T04:18:05.587Z,6.52
2023-02-25T04:20:33.462Z,6.54
2023-02-25T04:23:01.595Z,6.52
2023-02-25T04:25:30.685Z,6.49
2023-02-25T04:27:57.461Z,6.48
2023-02-25T04:30:24.330Z,6.48
2023-02-25T04:32:51.216Z,6.40
2023-02-25T04:35:18.174Z,6.38
2023-02-25T04:37:45.069Z,6.36
2023-02-25T04:40:14.954Z,6.36
2023-02-25T04:42:41.993Z,6.38
2023-02-25T04:45:10.071Z,6.40
2023-02-25T04:47:37.112Z,6.40
2023-02-25T04:50:04.785Z,6.36
2023-02-25T04:52:31.903Z,6.37
2023-02-25T04:54:58.753Z,6.36
2023-02-25T04:57:26.018Z,6.38
2023-02-25T04:59:52.963Z,6.38
2023-02-25T05:02:20.231Z,6.39
2023-02-25T05:04:47.249Z,6.41
2023-02-25T05:07:14.126Z,6.42
2023-02-25T05:09:40.964Z,6.43
2023-02-25T05:12:07.915Z,6.43
2023-02-25T05:14:35.135Z,6.47
2023-02-25T05:17:01.891Z,6.49
2023-02-25T05:19:30.972Z,6.49
2023-02-25T05:21:57.725Z,6.49
2023-02-25T05:24:24.497Z,6.51
2023-02-25T05:26:51.865Z,6.53
2023-02-25T05:29:19.106Z,6.54
2023-02-25T05:31:46.199Z,6.54
2023-02-25T05:34:13.247Z,6.55
2023-02-25T05:36:40.429Z,6.52
2023-02-25T05:39:07.182Z,6.50
2023-02-25T05:41:33.916Z,6.50
2023-02-25T05:44:00.743Z,6.50
2023-02-25T05:46:27.922Z,6.49
2023-02-25T05:48:55.045Z,6.50
2023-02-25T05:51:23.895Z,6.48
2023-02-25T05:53:51.063Z,6.48
2023-02-25T05:56:19.649Z,6.46
2023-02-25T05:58:48.782Z,6.45
2023-02-25T06:01:17.218Z,6.42
2023-02-25T06:03:45.193Z,6.41
2023-02-25T06:06:13.788Z,6.36
2023-02-25T06:08:42.091Z,6.37
2023-02-25T06:11:09.150Z,6.37
2023-02-25T06:13:38.190Z,6.39
2023-02-25T06:16:05.472Z,6.41
2023-02-25T06:18:36.983Z,6.43
2023-02-25T06:21:05.720Z,6.44
2023-02-25T06:23:32.931Z,6.45
2023-02-25T06:25:59.826Z,6.41
2023-02-25T06:28:26.625Z,6.41
2023-02-25T06:30:53.487Z,6.43
2023-02-25T06:33:20.448Z,6.42
2023-02-25T06:35:51.148Z,6.39
2023-02-25T06:38:17.922Z,6.40
2023-02-25T06:40:45.397Z,6.38
2023-02-25T06:43:12.245Z,6.40
2023-02-25T06:45:41.531Z,6.40
2023-02-25T06:48:08.503Z,6.39
2023-02-25T06:50:35.938Z,6.38
2023-02-25T06:53:02.657Z,6.36
2023-02-25T06:55:29.393Z,6.38
2023-02-25T06:57:56.337Z,6.40
2023-02-25T07:00:23.413Z,6.41
2023-02-25T07:02:50.328Z,6.44
2023-02-25T07:05:17.156Z,6.42
2023-02-25T07:07:43.980Z,6.41
2023-02-25T07:10:11.535Z,6.45
2023-02-25T07:12:38.333Z,6.45
2023-02-25T07:15:05.480Z,6.48
2023-02-25T07:17:32.316Z,6.50
2023-02-25T07:19:59.042Z,6.51
2023-02-25T07:22:25.826Z,6.51
2023-02-25T07:24:52.643Z,6.53
2023-02-25T07:27:19.407Z,6.53
2023-02-25T07:29:46.112Z,6.49
2023-02-25T07:32:13.164Z,6.47
2023-02-25T07:34:39.929Z,6.46
2023-02-25T07:37:06.640Z,6.49
2023-02-25T07:39:33.418Z,6.52
2023-02-25T07:42:00.248Z,6.60
2023-02-25T07:44:27.044Z,6.63
2023-02-25T07:46:53.764Z,6.68
2023-02-25T07:49:20.628Z,6.73
2023-02-25T07:51:47.363Z,6.77
2023-02-25T07:54:15.732Z,6.76
2023-02-25T07:56:42.543Z,6.76
2023-02-25T07:59:09.477Z,6.79
2023-02-25T08:01:39.735Z,6.83
2023-02-25T08:04:07.171Z,6.86
2023-02-25T08:06:37.727Z,6.90
2023-02-25T08:09:06.739Z,6.94
2023-02-25T08:11:33.783Z,6.97
2023-02-25T08:14:00.826Z,6.97
2023-02-25T08:16:27.816Z,7.01
2023-02-25T08:18:54.609Z,6.93
2023-02-25T08:21:22.430Z,6.91
2023-02-25T08:23:49.926Z,6.92
2023-02-25T08:26:18.874Z,6.95
2023-02-25T08:28:46.382Z,6.94
2023-02-25T08:31:13.741Z,6.94
2023-02-25T08:33:41.507Z,6.98
2023-02-25T08:36:09.794Z,7.03
2023-02-25T08:38:37.847Z,7.05
2023-02-25T08:41:05.844Z,7.06
2023-02-25T08:43:32.889Z,7.07
2023-02-25T08:46:01.193Z,7.03
2023-02-25T08:48:28.294Z,7.02
2023-02-25T08:50:55.843Z,7.07
2023-02-25T08:53:23.125Z,7.10
2023-02-25T08:55:51.249Z,7.14
2023-02-25T08:58:18.027Z,7.24
2023-02-25T09:00:45.011Z,7.24
2023-02-25T09:03:11.822Z,7.19
2023-02-25T09:05:38.571Z,7.21
2023-02-25T09:08:05.381Z,7.22
2023-02-25T09:10:48.214Z,7.26
2023-02-25T09:13:17.493Z,7.34
2023-02-25T09:15:44.548Z,7.39
2023-02-25T09:18:14.420Z,7.49
2023-02-25T09:20:41.251Z,7.51
2023-02-25T09:23:08.147Z,7.57
2023-02-25T09:25:35.046Z,7.64
2023-02-25T09:28:01.816Z,7.67
2023-02-25T09:30:28.632Z,7.70
2023-02-25T09:32:55.798Z,7.71
2023-02-25T09:35:23.088Z,7.74
2023-02-25T09:37:49.951Z,7.80
2023-02-25T09:40:23.039Z,7.85
2023-02-25T09:42:57.065Z,7.87
2023-02-25T09:45:25.411Z,7.88
2023-02-25T09:47:56.410Z,7.83
2023-02-25T09:50:28.808Z,7.87
2023-02-25T09:52:56.918Z,7.97
2023-02-25T09:55:24.015Z,8.02
2023-02-25T09:57:54.470Z,8.10
2023-02-25T10:00:23.849Z,8.11
2023-02-25T10:02:57.447Z,8.11
2023-02-25T10:05:27.356Z,8.12
2023-02-25T10:07:57.324Z,8.11
2023-02-25T10:11:11.093Z,8.09
2023-02-25T10:13:41.011Z,8.14
2023-02-25T10:16:16.975Z,8.18
2023-02-25T10:18:51.247Z,8.27
2023-02-25T10:21:21.380Z,8.36
2023-02-25T10:23:59.257Z,8.45
2023-02-25T10:26:29.369Z,8.46
2023-02-25T10:29:00.912Z,8.53
2023-02-25T10:31:30.432Z,8.65
2023-02-25T10:33:58.003Z,8.70
2023-02-25T10:36:28.382Z,8.70
2023-02-25T10:38:55.327Z,8.71
2023-02-25T10:41:25.607Z,8.74
2023-02-25T10:43:53.913Z,8.69
2023-02-25T10:46:24.327Z,8.70
2023-02-25T10:48:55.771Z,8.70
2023-02-25T10:51:22.920Z,8.72
2023-02-25T10:53:52.919Z,8.80
2023-02-25T10:56:23.185Z,8.81
2023-02-25T10:58:58.615Z,8.75
2023-02-25T11:01:25.874Z,8.79
2023-02-25T11:03:53.496Z,8.76
2023-02-25T11:06:23.187Z,8.84
2023-02-25T11:08:51.133Z,8.89
2023-02-25T11:11:21.030Z,8.96
2023-02-25T11:13:51.315Z,9.00
2023-02-25T11:16:19.733Z,9.11
2023-02-25T11:18:51.513Z,9.18
2023-02-25T11:21:27.922Z,9.10
2023-02-25T11:23:55.262Z,9.08
2023-02-25T11:26:25.694Z,9.05
2023-02-25T11:28:52.987Z,9.11
2023-02-25T11:31:24.275Z,9.21
2023-02-25T11:33:55.887Z,9.08
2023-02-25T11:36:24.136Z,9.08
2023-02-25T11:39:02.944Z,8.91
2023-02-25T11:41:32.464Z,8.86
2023-02-25T11:44:11.017Z,8.81
2023-02-25T11:46:38.286Z,8.85
2023-02-25T11:49:05.845Z,8.98
2023-02-25T11:51:47.292Z,9.12
2023-02-25T11:54:17.548Z,9.25
2023-02-25T11:56:48.815Z,9.37
2023-02-25T11:59:19.027Z,9.54
2023-02-25T12:01:46.823Z,9.71
2023-02-25T12:04:17.131Z,9.76
2023-02-25T12:06:47.077Z,9.77
2023-02-25T12:09:16.890Z,9.82
2023-02-25T12:11:46.948Z,9.72
2023-02-25T12:14:15.347Z,9.76
2023-02-25T12:16:45.560Z,9.83
2023-02-25T12:19:15.630Z,9.90
2023-02-25T12:21:52.294Z,9.91
2023-02-25T12:24:20.751Z,9.98
2023-02-25T12:26:48.410Z,9.97
2023-02-25T12:29:16.866Z,9.80
2023-02-25T12:31:48.978Z,9.69
2023-02-25T12:34:21.668Z,9.70
2023-02-25T12:36:58.539Z,9.44
2023-02-25T12:39:30.191Z,9.35
2023-02-25T12:42:00.687Z,9.28
2023-02-25T12:44:38.057Z,9.26
2023-02-25T12:47:11.128Z,9.29
2023-02-25T12:49:41.092Z,9.36
2023-02-25T12:52:09.365Z,9.48
2023-02-25T12:54:36.780Z,9.54
2023-02-25T12:57:11.888Z,9.62
2023-02-25T12:59:41.818Z,9.70
2023-02-25T13:02:11.652Z,9.71
2023-02-25T13:04:38.842Z,9.69
2023-02-25T13:07:06.243Z,9.61
2023-02-25T13:09:36.365Z,9.56
2023-02-25T13:12:13.869Z,9.48
2023-02-25T13:14:44.053Z,9.38
2023-02-25T13:17:11.444Z,9.33
2023-02-25T13:19:41.534Z,9.28
2023-02-25T13:22:12.384Z,9.18
2023-02-25T13:24:42.589Z,9.11
2023-02-25T13:27:12.675Z,9.17
2023-02-25T13:30:00.563Z,9.18
2023-02-25T13:32:30.639Z,9.29
2023-02-25T13:35:08.972Z,9.38
2023-02-25T13:37:41.283Z,9.47
2023-02-25T13:40:09.679Z,9.53
2023-02-25T13:42:36.839Z,9.61
2023-02-25T13:45:06.768Z,9.66
2023-02-25T13:47:36.751Z,9.70
2023-02-25T13:50:04.205Z,9.81
2023-02-25T13:52:35.700Z,9.95
2023-02-25T13:55:08.716Z,10.08
2023-02-25T13:57:38.784Z,10.16
2023-02-25T14:00:09.753Z,10.16
2023-02-25T14:02:44.329Z,10.19
2023-02-25T14:05:14.554Z,10.00
2023-02-25T14:07:44.515Z,9.89
2023-02-25T14:10:18.805Z,9.83
2023-02-25T14:12:55.241Z,9.74
2023-02-25T14:15:25.276Z,9.68
2023-02-25T14:17:55.608Z,9.70
2023-02-25T14:20:25.620Z,9.64
2023-02-25T14:22:55.866Z,9.62
2023-02-25T14:25:25.747Z,9.56
2023-02-25T14:28:00.712Z,9.54
2023-02-25T14:30:30.641Z,9.34
2023-02-25T14:33:00.535Z,9.09
2023-02-25T14:35:28.197Z,9.07
2023-02-25T14:38:02.926Z,9.02
2023-02-25T14:40:37.198Z,8.95
2023-02-25T14:43:14.119Z,8.98
2023-02-25T14:45:44.832Z,9.05
2023-02-25T14:48:15.371Z,9.13
2023-02-25T14:50:45.682Z,9.27
2023-02-25T14:53:18.077Z,9.34
2023-02-25T14:55:48.131Z,9.46
2023-02-25T14:58:15.402Z,9.56
2023-02-25T15:00:51.010Z,9.62
2023-02-25T15:03:22.638Z,9.75
2023-02-25T15:05:57.805Z,9.86
2023-02-25T15:08:26.024Z,9.98
2023-02-25T15:10:56.037Z,10.05
2023-02-25T15:13:26.025Z,10.05
2023-02-25T15:16:08.438Z,9.83
2023-02-25T15:18:35.820Z,9.42
2023-02-25T15:21:22.857Z,9.31
2023-02-25T15:23:51.625Z,9.19
2023-02-25T15:26:21.754Z,9.12
2023-02-25T15:28:50.065Z,9.12
2023-02-25T15:31:20.215Z,9.09
2023-02-25T15:33:47.812Z,9.09
2023-02-25T15:36:15.239Z,9.01
2023-02-25T15:38:45.265Z,8.94
2023-02-25T15:41:15.261Z,8.85
2023-02-25T15:43:43.069Z,8.90
2023-02-25T15:46:10.633Z,8.88
2023-02-25T15:48:39.662Z,8.88
2023-02-25T15:51:10.686Z,8.89
2023-02-25T15:53:40.007Z,8.92
2023-02-25T15:56:07.268Z,8.95
2023-02-25T15:58:34.712Z,9.02
2023-02-25T16:01:03.295Z,9.04
2023-02-25T16:03:35.243Z,9.09
2023-02-25T16:06:05.321Z,9.10
2023-02-25T16:08:36.003Z,9.11
2023-02-25T16:11:04.100Z,9.09
2023-02-25T16:13:32.724Z,9.12
2023-02-25T16:16:01.214Z,9.11
2023-02-25T16:18:32.702Z,9.16
2023-02-25T16:21:02.732Z,9.12
2023-02-25T16:23:30.550Z,9.18
2023-02-25T16:25:58.050Z,9.18
2023-02-25T16:28:26.964Z,9.16
2023-02-25T16:30:57.408Z,9.17
2023-02-25T16:33:27.628Z,9.07
2023-02-25T16:36:07.398Z,9.04
2023-02-25T16:38:42.638Z,9.05
2023-02-25T16:41:10.035Z,9.06
2023-02-25T16:43:38.532Z,9.07
2023-02-25T16:46:08.628Z,9.08
2023-02-25T16:48:38.541Z,9.13
2023-02-25T16:51:08.874Z,9.09
2023-02-25T16:53:36.174Z,9.03
2023-02-25T16:56:05.998Z,8.94
2023-02-25T16:58:32.864Z,8.91
2023-02-25T17:01:05.549Z,8.85
2023-02-25T17:03:41.947Z,8.77
2023-02-25T17:06:15.341Z,8.77
2023-02-25T17:08:45.525Z,8.81
2023-02-25T17:11:16.693Z,8.85
2023-02-25T17:13:44.990Z,8.77
2023-02-25T17:16:15.160Z,8.76
2023-02-25T17:18:45.571Z,8.71
2023-02-25T17:21:15.722Z,8.72
2023-02-25T17:23:43.720Z,8.74
2023-02-25T17:26:13.824Z,8.73
2023-02-25T17:28:41.204Z,8.71
2023-02-25T17:31:11.373Z,8.64
2023-02-25T17:33:47.706Z,8.56
2023-02-25T17:36:15.753Z,8.55
2023-02-25T17:38:44.160Z,8.47
2023-02-25T17:41:14.057Z,8.48
2023-02-25T17:43:41.336Z,8.51
2023-02-25T17:46:13.559Z,8.53
2023-02-25T17:48:43.660Z,8.52
2023-02-25T17:51:10.937Z,8.41
2023-02-25T17:53:44.147Z,8.41
2023-02-25T17:56:14.968Z,8.39
2023-02-25T17:58:42.493Z,8.38
2023-02-25T18:01:18.187Z,8.38
2023-02-25T18:03:46.717Z,8.34
2023-02-25T18:06:16.854Z,8.36
2023-02-25T18:08:47.296Z,8.36
2023-02-25T18:11:17.254Z,8.34
2023-02-25T18:13:44.216Z,8.29
2023-02-25T18:16:17.988Z,8.32
2023-02-25T18:18:50.183Z,8.28
2023-02-25T18:21:17.674Z,8.26
2023-02-25T18:23:44.973Z,8.24
2023-02-25T18:26:13.780Z,8.24
2023-02-25T18:28:41.149Z,8.22
2023-02-25T18:31:08.526Z,8.21
2023-02-25T18:33:35.593Z,8.18
2023-02-25T18:36:05.065Z,8.16
2023-02-25T18:38:32.298Z,8.20
2023-02-25T18:41:00.020Z,8.16
2023-02-25T18:43:30.922Z,8.14
2023-02-25T18:45:58.215Z,8.07
2023-02-25T18:48:26.075Z,8.07
2023-02-25T18:50:53.020Z,8.03
2023-02-25T18:53:21.272Z,8.04
2023-02-25T18:55:48.134Z,8.02
2023-02-25T18:58:16.235Z,7.97
2023-02-25T19:00:44.684Z,7.97
2023-02-25T19:03:14.597Z,7.97
2023-02-25T19:05:41.857Z,7.94
2023-02-25T19:08:12.289Z,7.91
2023-02-25T19:10:39.335Z,7.84
2023-02-25T19:13:12.535Z,7.84
2023-02-25T19:15:39.676Z,7.87
2023-02-25T19:18:06.892Z,7.83
2023-02-25T19:20:33.821Z,7.80
2023-02-25T19:23:00.615Z,7.76
2023-02-25T19:25:28.909Z,7.69
2023-02-25T19:27:56.728Z,7.70
2023-02-25T19:30:25.678Z,7.71
2023-02-25T19:32:52.562Z,7.65
2023-02-25T19:35:19.763Z,7.61
2023-02-25T19:37:47.264Z,7.57
2023-02-25T19:40:15.195Z,7.53
2023-02-25T19:42:43.102Z,7.50
2023-02-25T19:45:11.162Z,7.47
2023-02-25T19:47:38.089Z,7.41
2023-02-25T19:50:06.390Z,7.40
2023-02-25T19:52:33.585Z,7.38
2023-02-25T19:55:03.529Z,7.39
2023-02-25T19:57:30.687Z,7.35
2023-02-25T19:59:57.691Z,7.30
2023-02-25T20:02:24.808Z,7.22
2023-02-25T20:04:52.037Z,7.24
2023-02-25T20:07:18.946Z,7.13
2023-02-25T20:09:45.827Z,7.15
2023-02-25T20:12:14.851Z,7.15
2023-02-25T20:14:41.737Z,7.13
2023-02-25T20:17:08.738Z,7.11
2023-02-25T20:19:35.773Z,7.08
2023-02-25T20:22:04.192Z,7.10
2023-02-25T20:24:31.470Z,7.08
2023-02-25T20:26:58.455Z,7.06
2023-02-25T20:29:25.405Z,7.05
2023-02-25T20:31:52.322Z,7.05
2023-02-25T20:34:21.085Z,7.03
2023-02-25T20:36:51.447Z,6.93
2023-02-25T20:39:21.665Z,6.92
2023-02-25T20:41:49.167Z,6.87
2023-02-25T20:44:17.088Z,6.86
2023-02-25T20:46:44.631Z,6.83
2023-02-25T20:49:14.287Z,6.80
2023-02-25T20:51:42.717Z,6.82
2023-02-25T20:54:10.382Z,6.85
2023-02-25T20:56:37.225Z,6.85
2023-02-25T20:59:04.456Z,6.83
2023-02-25T21:01:31.426Z,6.84
2023-02-25T21:03:58.433Z,6.83
2023-02-25T21:06:26.046Z,6.85
2023-02-25T21:08:53.625Z,6.87
2023-02-25T21:11:21.316Z,6.85
2023-02-25T21:13:48.428Z,6.85
2023-02-25T21:16:15.745Z,6.84
2023-02-25T21:18:43.947Z,6.81
2023-02-25T21:21:11.903Z,6.78
2023-02-25T21:23:39.530Z,6.73
2023-02-25T21:26:09.077Z,6.70
2023-02-25T21:28:36.322Z,6.68
2023-02-25T21:31:05.843Z,6.68
2023-02-25T21:33:33.552Z,6.68
2023-02-25T21:36:01.199Z,6.67
2023-02-25T21:38:29.011Z,6.66
2023-02-25T21:40:56.410Z,6.62
2023-02-25T21:43:24.226Z,6.62
2023-02-25T21:45:54.139Z,6.64
2023-02-25T21:48:21.365Z,6.64
2023-02-25T21:50:48.446Z,6.63
2023-02-25T21:53:15.581Z,6.58
2023-02-25T21:55:43.427Z,6.53
2023-02-25T21:58:11.186Z,6.51
2023-02-25T22:00:38.542Z,6.50
2023-02-25T22:03:06.504Z,6.39
2023-02-25T22:05:33.663Z,6.36
2023-02-25T22:08:00.537Z,6.35
2023-02-25T22:10:27.598Z,6.36
2023-02-25T22:12:54.438Z,6.37
2023-02-25T22:15:23.542Z,6.35
2023-02-25T22:17:50.614Z,6.34
2023-02-25T22:20:18.089Z,6.30
2023-02-25T22:22:44.965Z,6.34
2023-02-25T22:25:11.965Z,6.38
2023-02-25T22:27:41.071Z,6.38
2023-02-25T22:30:09.063Z,6.37
2023-02-25T22:32:36.838Z,6.36
2023-02-25T22:35:04.471Z,6.35
2023-02-25T22:37:32.677Z,6.38
2023-02-25T22:39:59.407Z,6.37
2023-02-25T22:42:26.512Z,6.42
2023-02-25T22:44:56.661Z,6.43
2023-02-25T22:47:23.690Z,6.44
2023-02-25T22:49:50.773Z,6.44
2023-02-25T22:52:17.657Z,6.46
2023-02-25T22:54:44.613Z,6.42
2023-02-25T22:57:11.380Z,6.36
2023-02-25T22:59:38.320Z,6.34
2023-02-25T23:02:05.406Z,6.29
2023-02-25T23:04:33.165Z,6.22
2023-02-25T23:07:01.258Z,6.14
2023-02-25T23:09:28.268Z,6.09
2023-02-25T23:11:55.702Z,6.09
2023-02-25T23:14:22.577Z,6.09
2023-02-25T23:16:49.479Z,6.07
2023-02-25T23:19:17.957Z,6.03
2023-02-25T23:21:45.193Z,5.99
2023-02-25T23:24:18.796Z,6.04
2023-02-25T23:26:46.822Z,6.01
2023-02-25T23:29:14.183Z,6.03
2023-02-25T23:31:43.731Z,6.03
2023-02-25T23:34:12.406Z,6.04
2023-02-25T23:36:40.481Z,6.02
2023-02-25T23:39:09.138Z,5.99
2023-02-25T23:41:36.607Z,5.95
2023-02-25T23:44:03.944Z,5.96
2023-02-25T23:46:31.782Z,5.98
2023-02-25T23:49:00.177Z,5.94
2023-02-25T23:51:29.732Z,5.92
2023-02-25T23:53:57.765Z,5.93
2023-02-25T23:56:26.972Z,5.97
2023-02-25T23:58:54.268Z,6.00
